Graphite, New York
Current Conditions -  °F | °C
As of 4:53 PM on Wednesday 17 Dec 2014 (Local Time) from KGFL Reporting Station
Overcast Overcast  
Wind Chill: 36°   Ceiling: 8000
Heat Index: 41°   Visibility: 10mi
Dew Point: 35°   Wind: 8mph
Humidity: 79%   Direction: 230°SW
Pressure: 29.78"   Gusts: NA
Location:  43.7292°N, 73.5623°W
Report Text: KGFL 172153Z AUTO 23007KT 10SM SCT044 OVC080 05/02 A2978 RMK AO2 RAE09 SLP091 P0000 T00500017
Loading
Personal Weather Stations






























Interactive Weather Map New forecast layout! Learn more

10-Day Weather Forecast

Advertisements
Track Severe Weather on mobile